Tahitian Princess — ZCDD8 — position and weather

sailwx.info

Track history (hours):
 
Tides and Currents Weather Stations Pressure Air Temp Water Temp Dewpoint Dewpoint Depression Visibility Wind Speed Wind Dir Waves Ship Positions

Tahitian Princess

Operator: P & O Irish Sea Ltd

Last reported at 2017-Mar-24 11:33 UTC. Time now 2017-Mar-24 12:22 UTC.
Position N 53°31' W 003°14'.

Length 167 m; draft 5.7 m.

Type: Passenger vessel. MMSI: 310362000.

Date/timePositionNaut miles runAvg speedWind from/ knotsBaromVisibWave heightAir tempDewpointWater temp
2017-Mar-24 11:33N 53°31' W 003°14'8 8.4
2017-Mar-24 10:33N 53°27' W 003°01'0 0.4
2017-Mar-24 09:33N 53°27' W 003°01'0 0.0
2017-Mar-24 08:33N 53°27' W 003°01'0 0.0
2017-Mar-24 07:32N 53°27' W 003°01'0 0.0
2017-Mar-24 06:33N 53°27' W 003°01'0 0.0
2017-Mar-24 05:33N 53°27' W 003°01'1 0.6
2017-Mar-24 04:33N 53°27' W 003°01'1211.7
2017-Mar-24 03:33N 53°31' W 003°19'1616.1
2017-Mar-24 02:33N 53°32' W 003°46'14 1.0
2017-Mar-23 12:33N 53°35' W 004°09'1616.3
2017-Mar-23 11:33N 53°33' W 003°42'1817.5
2017-Mar-23 10:33N 53°31' W 003°12'8 7.9
2017-Mar-23 09:33N 53°27' W 003°01'0 0.4
2017-Mar-23 08:33N 53°27' W 003°01'0 0.0
2017-Mar-23 07:33N 53°27' W 003°01'0 0.0
2017-Mar-23 06:33N 53°27' W 003°01'0 0.0
2017-Mar-23 05:33N 53°27' W 003°01'1 0.8
2017-Mar-23 04:33N 53°27' W 003°01'1111.3
2017-Mar-23 03:33N 53°31' W 003°19'1717.2
2017-Mar-23 02:33N 53°31' W 003°48'11 0.8
2017-Mar-22 12:12N 53°36' W 004°04'1218.8
2017-Mar-22 11:33N 53°34' W 003°44'1918.6
2017-Mar-22 10:33N 53°31' W 003°13'8 8.3
2017-Mar-22 09:33N 53°27' W 003°01'0 0.4
2017-Mar-22 08:33N 53°27' W 003°01'0 0.0
2017-Mar-22 07:33N 53°27' W 003°01'0 0.0
2017-Mar-22 06:33N 53°27' W 003°01'0 0.0
2017-Mar-22 05:33N 53°27' W 003°01'1 0.6
2017-Mar-22 04:33N 53°27' W 003°01'1212.0
2017-Mar-22 03:33N 53°32' W 003°20'1616.5
2017-Mar-22 02:33N 53°32' W 003°47'7 0.5
2017-Mar-21 12:32N 53°35' W 003°57'1919.2
2017-Mar-21 11:33N 53°33' W 003°26'1615.6
2017-Mar-21 10:33N 53°27' W 003°02'0 0.4
2017-Mar-21 09:33N 53°27' W 003°01'0 0.4
2017-Mar-21 08:33N 53°27' W 003°01'0 0.0
2017-Mar-21 07:33N 53°27' W 003°01'0 0.0
2017-Mar-21 06:33N 53°27' W 003°01'1 0.6
2017-Mar-21 05:32N 53°27' W 003°01'1211.9
2017-Mar-21 04:33N 53°31' W 003°19'1515.2
2017-Mar-21 03:34N 53°32' W 003°45'1413.8
2017-Mar-21 02:34N 53°33' W 004°08'10 0.4
2017-Mar-19 23:32N 53°35' W 003°51'1717.7
2017-Mar-19 22:33N 53°33' W 003°22'1413.6
2017-Mar-19 21:33N 53°27' W 003°01'0 0.4
2017-Mar-19 20:31N 53°27' W 003°01'0 0.0
2017-Mar-19 19:31N 53°27' W 003°01'0 0.0
2017-Mar-19 18:28N 53°27' W 003°01'0 0.0
2017-Mar-19 17:31N 53°27' W 003°01'0 0.0
2017-Mar-19 16:28N 53°27' W 003°01'0 0.0
2017-Mar-19 15:19N 53°27' W 003°01'0 0.0
2017-Mar-19 14:31N 53°27' W 003°01'0 0.0
2017-Mar-19 13:31N 53°27' W 003°01'0 0.0
2017-Mar-19 12:31N 53°27' W 003°01'0 0.0
2017-Mar-19 11:28N 53°27' W 003°01'0 0.0
2017-Mar-19 10:31N 53°27' W 003°01'0 0.0
2017-Mar-19 09:31N 53°27' W 003°01'0 0.0
2017-Mar-19 08:28N 53°27' W 003°01'0 0.0
2017-Mar-19 07:31N 53°27' W 003°01'0 0.0
2017-Mar-19 06:31N 53°27' W 003°01'0 0.3
2017-Mar-19 05:32N 53°27' W 003°01'4 4.4
2017-Mar-19 04:33N 53°30' W 003°06'1515.2
2017-Mar-19 03:33N 53°31' W 003°32'1414.3
2017-Mar-19 02:33N 53°33' W 003°56'3 0.2
2017-Mar-18 12:28N 53°35' W 004°00'1617.7
2017-Mar-18 11:33N 53°33' W 003°33'1616.4
2017-Mar-18 10:33N 53°30' W 003°06'4 4.2
2017-Mar-18 09:33N 53°27' W 003°01'0 0.2
2017-Mar-18 08:33N 53°27' W 003°01'0 0.0
2017-Mar-18 07:34N 53°27' W 003°01'0 0.0
2017-Mar-18 06:33N 53°27' W 003°01'0 0.0
2017-Mar-18 05:33N 53°27' W 003°01'1 0.5
2017-Mar-18 04:33N 53°27' W 003°01'1212.2
2017-Mar-18 03:33N 53°31' W 003°20'1615.8
2017-Mar-18 02:33N 53°32' W 003°47'8 0.6
2017-Mar-17 12:30N 53°35' W 003°59'1717.5
2017-Mar-17 11:33N 53°33' W 003°31'1515.3
2017-Mar-17 10:33N 53°30' W 003°05'4 3.9
2017-Mar-17 09:33N 53°27' W 003°01'0 0.4
2017-Mar-17 08:33N 53°27' W 003°01'0 0.0
2017-Mar-17 07:33N 53°27' W 003°01'0 0.0
2017-Mar-17 06:33N 53°27' W 003°01'0 0.0
2017-Mar-17 05:33N 53°27' W 003°01'1 0.6
2017-Mar-17 04:33N 53°27' W 003°01'1212.4
2017-Mar-17 03:33N 53°31' W 003°21'1918.8
2017-Mar-17 02:33N 53°32' W 003°52'6 0.4
2017-Mar-16 12:33N 53°35' W 004°00'1818.2
2017-Mar-16 11:33N 53°33' W 003°30'1615.5
2017-Mar-16 10:33N 53°29' W 003°05'3 2.7
2017-Mar-16 09:33N 53°27' W 003°01'0 0.0
2017-Mar-16 08:33N 53°27' W 003°01'0 0.0
2017-Mar-16 07:33N 53°27' W 003°01'0 0.0
2017-Mar-16 06:34N 53°27' W 003°01'0 0.0
2017-Mar-16 05:33N 53°27' W 003°01'1 0.5
2017-Mar-16 04:34N 53°27' W 003°02'1211.9
2017-Mar-16 03:33N 53°31' W 003°20'1616.3
2017-Mar-16 02:33N 53°32' W 003°48'65 6.2
2017-Mar-15 16:04N 53°26' W 005°36'3120.0
2017-Mar-15 14:31N 53°36' W 004°46'2420.3
2017-Mar-15 13:19N 53°36' W 004°06'1519.7
2017-Mar-15 12:33N 53°34' W 003°40'1818.5
2017-Mar-15 11:33N 53°32' W 003°09'7 6.9
2017-Mar-15 10:33N 53°27' W 003°01'0 0.4
2017-Mar-15 09:33N 53°27' W 003°01'0 0.0
2017-Mar-15 08:33N 53°27' W 003°01'0 0.0
2017-Mar-15 07:33N 53°27' W 003°01'0 0.0
2017-Mar-15 06:33N 53°27' W 003°01'0 0.0
2017-Mar-15 05:33N 53°27' W 003°01'1 0.6
2017-Mar-15 04:33N 53°27' W 003°02'1312.9
2017-Mar-15 03:33N 53°31' W 003°22'1616.2
2017-Mar-15 02:33N 53°31' W 003°50'1716.6
2017-Mar-15 01:31N 53°35' W 004°18'10 0.7
2017-Mar-14 12:12N 53°35' W 004°02'  
Track history (hours):
 
Tides and Currents Weather Stations Pressure Air Temp Water Temp Dewpoint Dewpoint Depression Visibility Wind Speed Wind Dir Waves Ship Positions

Tahitian Princess

Operator: P & O Irish Sea Ltd

Last reported at 2017-Mar-24 11:33 UTC. Time now 2017-Mar-24 12:22 UTC.
Position N 53°31' W 003°14'.

Length 167 m; draft 5.7 m.

Type: Passenger vessel. MMSI: 310362000.

Date/timePositionNaut miles runAvg speedWind from/ knotsBaromVisibWave heightAir tempDewpointWater temp
2017-Mar-24 11:33N 53°31' W 003°14'8 8.4
2017-Mar-24 10:33N 53°27' W 003°01'0 0.4
2017-Mar-24 09:33N 53°27' W 003°01'0 0.0
2017-Mar-24 08:33N 53°27' W 003°01'0 0.0
2017-Mar-24 07:32N 53°27' W 003°01'0 0.0
2017-Mar-24 06:33N 53°27' W 003°01'0 0.0
2017-Mar-24 05:33N 53°27' W 003°01'1 0.6
2017-Mar-24 04:33N 53°27' W 003°01'1211.7
2017-Mar-24 03:33N 53°31' W 003°19'1616.1
2017-Mar-24 02:33N 53°32' W 003°46'14 1.0
2017-Mar-23 12:33N 53°35' W 004°09'1616.3
2017-Mar-23 11:33N 53°33' W 003°42'1817.5
2017-Mar-23 10:33N 53°31' W 003°12'8 7.9
2017-Mar-23 09:33N 53°27' W 003°01'0 0.4
2017-Mar-23 08:33N 53°27' W 003°01'0 0.0
2017-Mar-23 07:33N 53°27' W 003°01'0 0.0
2017-Mar-23 06:33N 53°27' W 003°01'0 0.0
2017-Mar-23 05:33N 53°27' W 003°01'1 0.8
2017-Mar-23 04:33N 53°27' W 003°01'1111.3
2017-Mar-23 03:33N 53°31' W 003°19'1717.2
2017-Mar-23 02:33N 53°31' W 003°48'11 0.8
2017-Mar-22 12:12N 53°36' W 004°04'1218.8
2017-Mar-22 11:33N 53°34' W 003°44'1918.6
2017-Mar-22 10:33N 53°31' W 003°13'8 8.3
2017-Mar-22 09:33N 53°27' W 003°01'0 0.4
2017-Mar-22 08:33N 53°27' W 003°01'0 0.0
2017-Mar-22 07:33N 53°27' W 003°01'0 0.0
2017-Mar-22 06:33N 53°27' W 003°01'0 0.0
2017-Mar-22 05:33N 53°27' W 003°01'1 0.6
2017-Mar-22 04:33N 53°27' W 003°01'1212.0
2017-Mar-22 03:33N 53°32' W 003°20'1616.5
2017-Mar-22 02:33N 53°32' W 003°47'7 0.5
2017-Mar-21 12:32N 53°35' W 003°57'1919.2
2017-Mar-21 11:33N 53°33' W 003°26'1615.6
2017-Mar-21 10:33N 53°27' W 003°02'0 0.4
2017-Mar-21 09:33N 53°27' W 003°01'0 0.4
2017-Mar-21 08:33N 53°27' W 003°01'0 0.0
2017-Mar-21 07:33N 53°27' W 003°01'0 0.0
2017-Mar-21 06:33N 53°27' W 003°01'1 0.6
2017-Mar-21 05:32N 53°27' W 003°01'1211.9
2017-Mar-21 04:33N 53°31' W 003°19'1515.2
2017-Mar-21 03:34N 53°32' W 003°45'1413.8
2017-Mar-21 02:34N 53°33' W 004°08'10 0.4
2017-Mar-19 23:32N 53°35' W 003°51'1717.7
2017-Mar-19 22:33N 53°33' W 003°22'1413.6
2017-Mar-19 21:33N 53°27' W 003°01'0 0.4
2017-Mar-19 20:31N 53°27' W 003°01'0 0.0
2017-Mar-19 19:31N 53°27' W 003°01'0 0.0
2017-Mar-19 18:28N 53°27' W 003°01'0 0.0
2017-Mar-19 17:31N 53°27' W 003°01'0 0.0
2017-Mar-19 16:28N 53°27' W 003°01'0 0.0
2017-Mar-19 15:19N 53°27' W 003°01'0 0.0
2017-Mar-19 14:31N 53°27' W 003°01'0 0.0
2017-Mar-19 13:31N 53°27' W 003°01'0 0.0
2017-Mar-19 12:31N 53°27' W 003°01'0 0.0
2017-Mar-19 11:28N 53°27' W 003°01'0 0.0
2017-Mar-19 10:31N 53°27' W 003°01'0 0.0
2017-Mar-19 09:31N 53°27' W 003°01'0 0.0
2017-Mar-19 08:28N 53°27' W 003°01'0 0.0
2017-Mar-19 07:31N 53°27' W 003°01'0 0.0
2017-Mar-19 06:31N 53°27' W 003°01'0 0.3
2017-Mar-19 05:32N 53°27' W 003°01'4 4.4
2017-Mar-19 04:33N 53°30' W 003°06'1515.2
2017-Mar-19 03:33N 53°31' W 003°32'1414.3
2017-Mar-19 02:33N 53°33' W 003°56'3 0.2
2017-Mar-18 12:28N 53°35' W 004°00'1617.7
2017-Mar-18 11:33N 53°33' W 003°33'1616.4
2017-Mar-18 10:33N 53°30' W 003°06'4 4.2
2017-Mar-18 09:33N 53°27' W 003°01'0 0.2
2017-Mar-18 08:33N 53°27' W 003°01'0 0.0
2017-Mar-18 07:34N 53°27' W 003°01'0 0.0
2017-Mar-18 06:33N 53°27' W 003°01'0 0.0
2017-Mar-18 05:33N 53°27' W 003°01'1 0.5
2017-Mar-18 04:33N 53°27' W 003°01'1212.2
2017-Mar-18 03:33N 53°31' W 003°20'1615.8
2017-Mar-18 02:33N 53°32' W 003°47'8 0.6
2017-Mar-17 12:30N 53°35' W 003°59'1717.5
2017-Mar-17 11:33N 53°33' W 003°31'1515.3
2017-Mar-17 10:33N 53°30' W 003°05'4 3.9
2017-Mar-17 09:33N 53°27' W 003°01'0 0.4
2017-Mar-17 08:33N 53°27' W 003°01'0 0.0
2017-Mar-17 07:33N 53°27' W 003°01'0 0.0
2017-Mar-17 06:33N 53°27' W 003°01'0 0.0
2017-Mar-17 05:33N 53°27' W 003°01'1 0.6
2017-Mar-17 04:33N 53°27' W 003°01'1212.4
2017-Mar-17 03:33N 53°31' W 003°21'1918.8
2017-Mar-17 02:33N 53°32' W 003°52'6 0.4
2017-Mar-16 12:33N 53°35' W 004°00'1818.2
2017-Mar-16 11:33N 53°33' W 003°30'1615.5
2017-Mar-16 10:33N 53°29' W 003°05'3 2.7
2017-Mar-16 09:33N 53°27' W 003°01'0 0.0
2017-Mar-16 08:33N 53°27' W 003°01'0 0.0
2017-Mar-16 07:33N 53°27' W 003°01'0 0.0
2017-Mar-16 06:34N 53°27' W 003°01'0 0.0
2017-Mar-16 05:33N 53°27' W 003°01'1 0.5
2017-Mar-16 04:34N 53°27' W 003°02'1211.9
2017-Mar-16 03:33N 53°31' W 003°20'1616.3
2017-Mar-16 02:33N 53°32' W 003°48'65 6.2
2017-Mar-15 16:04N 53°26' W 005°36'3120.0
2017-Mar-15 14:31N 53°36' W 004°46'2420.3
2017-Mar-15 13:19N 53°36' W 004°06'1519.7
2017-Mar-15 12:33N 53°34' W 003°40'1818.5
2017-Mar-15 11:33N 53°32' W 003°09'7 6.9
2017-Mar-15 10:33N 53°27' W 003°01'0 0.4
2017-Mar-15 09:33N 53°27' W 003°01'0 0.0
2017-Mar-15 08:33N 53°27' W 003°01'0 0.0
2017-Mar-15 07:33N 53°27' W 003°01'0 0.0
2017-Mar-15 06:33N 53°27' W 003°01'0 0.0
2017-Mar-15 05:33N 53°27' W 003°01'1 0.6
2017-Mar-15 04:33N 53°27' W 003°02'1312.9
2017-Mar-15 03:33N 53°31' W 003°22'1616.2
2017-Mar-15 02:33N 53°31' W 003°50'1716.6
2017-Mar-15 01:31N 53°35' W 004°18'10 0.7
2017-Mar-14 12:12N 53°35' W 004°02'  

Dump ship's entire track history